Time;durP1;ratioP1;P1;durP2;ratioP2;P2;SDS_P1;SDS_P2;PMS_P1;PMS_P2;Temp;Humidity;BMP_temperature;BMP_pressure;BME280_temperature;BME280_humidity;BME280_pressure;Samples;Min_cycle;Max_cycle;Signal;HPM_P1;HPM_P2
2022/02/10 00:22:15;;;;;;;10.50;3.95;;;;;;;3.25;71.51;100974.36;1772804;80;21186;-62
2022/02/10 00:35:37;;;;;;;12.47;4.80;;;;;;;3.47;70.98;100962.80;1772480;79;21398;-62
2022/02/10 00:38:40;;;;;;;12.35;4.60;;;;;;;3.52;70.87;100950.62;1719972;83;21628;-62
2022/02/10 00:41:42;;;;;;;12.05;4.33;;;;;;;3.58;70.78;100927.17;1719907;83;21252;-62
2022/02/10 00:44:48;;;;;;;9.78;4.20;;;;;;;3.63;70.69;100937.12;1719360;82;21288;-62
2022/02/10 00:47:59;;;;;;;14.03;4.72;;;;;;;3.67;70.58;100933.22;1772719;80;21335;-63
2022/02/10 00:51:05;;;;;;;12.75;5.22;;;;;;;3.72;70.46;100944.56;1772467;79;21359;-63
2022/02/10 00:54:11;;;;;;;12.85;4.60;;;;;;;3.77;70.30;100937.43;1720445;82;21772;-63
2022/02/10 00:57:20;;;;;;;11.70;4.33;;;;;;;3.77;70.19;100934.24;1720812;81;21778;-63
2022/02/10 01:10:24;;;;;;;10.60;4.20;;;;;;;3.70;70.17;100931.63;1719441;83;21726;-62
2022/02/10 01:30:26;;;;;;;8.63;4.45;;;;;;;3.42;72.18;100928.45;1719332;82;21230;-62
2022/02/10 01:33:33;;;;;;;10.43;4.87;;;;;;;3.32;72.53;100933.70;1719287;83;21228;-62
2022/02/10 01:36:39;;;;;;;11.08;4.50;;;;;;;3.26;72.84;100923.35;1719098;83;21213;-62
2022/02/10 01:39:53;;;;;;;12.65;4.80;;;;;;;3.21;73.11;100924.66;1719291;82;21237;-62
2022/02/10 02:03:23;;;;;;;;;;;;;;;3.12;74.03;100934.36;1722031;83;21217;-62
2022/02/10 02:06:39;;;;;;;10.95;4.80;;;;;;;3.13;74.00;100938.78;1719875;83;20214;-62
2022/02/10 02:09:36;;;;;;;14.53;5.40;;;;;;;3.14;74.06;100937.78;1719606;82;21245;-62
2022/02/10 02:12:43;;;;;;;13.70;5.00;;;;;;;3.19;74.01;100941.02;1770237;80;21217;-62
2022/02/10 02:15:49;;;;;;;10.80;5.78;;;;;;;3.22;73.94;100935.37;1771083;80;21213;-62
2022/02/10 02:18:54;;;;;;;14.07;5.62;;;;;;;3.24;73.85;100936.13;1771060;79;21217;-61
2022/02/10 02:22:05;;;;;;;10.20;5.65;;;;;;;3.28;73.79;100935.41;1769721;80;21239;-61
2022/02/10 02:25:10;;;;;;;15.18;5.60;;;;;;;3.28;73.75;100908.36;1770071;79;21216;-62
2022/02/10 02:28:18;;;;;;;12.78;5.08;;;;;;;3.27;73.70;100912.89;1770935;80;21190;-62
2022/02/10 02:31:35;;;;;;;12.53;5.55;;;;;;;3.28;73.73;100913.28;1770647;80;21212;-63
2022/02/10 02:38:32;;;;;;;12.98;5.60;;;;;;;3.29;73.69;100919.54;1771249;80;21326;-65
2022/02/10 03:04:08;;;;;;;13.70;6.37;;;;;;;3.25;73.74;100916.20;1763710;80;21233;-62
2022/02/10 03:08:14;;;;;;;17.70;7.97;;;;;;;3.34;73.98;100914.16;1771532;80;21347;-62
2022/02/10 03:11:15;;;;;;;18.37;7.90;;;;;;;3.39;73.92;100913.81;1770662;79;21263;-61
2022/02/10 03:14:29;;;;;;;14.68;7.03;;;;;;;3.43;73.85;100900.41;1770956;79;21224;-61
2022/02/10 03:17:53;;;;;;;15.98;7.83;;;;;;;3.47;73.70;100898.72;1770767;81;21694;-62
2022/02/10 04:02:05;;;;;;;16.48;8.20;;;;;;;3.51;73.24;100856.89;1769348;80;21375;-62
2022/02/10 04:14:48;;;;;;;10.25;5.67;;;;;;;3.61;72.95;100856.55;1770656;79;21260;-60
2022/02/10 04:57:48;;;;;;;16.15;5.92;;;;;;;3.53;73.05;100847.30;1765096;81;21219;-61
2022/02/10 05:24:12;;;;;;;13.75;5.70;;;;;;;3.43;73.69;100840.87;1731893;82;21345;-60
2022/02/10 05:33:56;;;;;;;16.25;6.67;;;;;;;3.36;74.57;100840.52;1738300;82;21215;-61
2022/02/10 05:37:02;;;;;;;15.45;7.50;;;;;;;3.34;74.93;100837.05;1706194;84;21698;-60
2022/02/10 05:40:17;;;;;;;18.25;8.00;;;;;;;3.34;75.24;100829.42;1706319;84;21413;-60
2022/02/10 05:46:50;;;;;;;15.58;7.28;;;;;;;3.35;75.66;100823.02;1711289;82;21208;-60
2022/02/10 05:53:31;;;;;;;14.93;6.42;;;;;;;3.35;76.10;100827.07;1717599;82;22080;-60
2022/02/10 05:56:34;;;;;;;14.18;7.58;;;;;;;3.33;76.37;100830.41;1713360;82;21205;-60
2022/02/10 06:38:07;;;;;;;15.88;7.35;;;;;;;3.38;76.79;100829.57;1697732;80;21209;-60
2022/02/10 06:47:55;;;;;;;16.07;7.97;;;;;;;3.47;81.75;100819.38;1761601;80;21798;-59
2022/02/10 06:53:50;;;;;;;15.45;7.92;;;;;;;3.52;82.24;100806.34;1734609;82;21444;-59
2022/02/10 07:43:17;;;;;;;15.35;8.38;;;;;;;3.70;83.18;100826.05;1749641;80;21372;-62
2022/02/10 07:54:38;;;;;;;17.85;11.38;;;;;;;4.05;84.73;100806.97;1763965;80;21229;-61
2022/02/10 07:57:45;;;;;;;17.85;12.10;;;;;;;4.07;84.76;100808.58;1741034;81;21248;-60
2022/02/10 08:04:16;;;;;;;15.75;10.93;;;;;;;4.09;84.85;100805.23;1739423;81;21228;-60
2022/02/10 09:11:57;;;;;;;26.80;17.27;;;;;;;4.98;85.67;100788.74;1734989;82;21216;-58
2022/02/10 10:00:50;;;;;;;29.23;20.17;;;;;;;5.77;84.44;100795.25;1735069;82;21748;-59
2022/02/10 10:03:46;;;;;;;26.65;18.40;;;;;;;5.82;84.36;100796.23;1718048;82;21721;-59
2022/02/10 10:10:16;;;;;;;27.58;19.98;;;;;;;5.86;84.04;100798.57;1740044;81;21741;-60
2022/02/10 10:13:34;;;;;;;29.70;19.92;;;;;;;5.86;83.92;100789.55;1704841;84;21734;-60
2022/02/10 10:16:44;;;;;;;28.40;19.80;;;;;;;5.85;83.92;100793.27;1739027;82;21772;-60
2022/02/10 10:23:35;;;;;;;33.45;22.37;;;;;;;5.97;83.85;100794.89;1737925;82;21566;-60
2022/02/10 10:48:33;;;;;;;27.52;19.12;;;;;;;6.38;82.09;100799.31;1728903;82;21236;-59
2022/02/10 10:50:34;;;;;;;31.45;21.35;;;;;;;6.41;82.00;100790.88;1729751;83;21370;-59
2022/02/10 10:53:42;;;;;;;37.33;26.10;;;;;;;6.49;81.80;100806.00;1729199;83;21196;-59
2022/02/10 10:56:45;;;;;;;28.47;21.55;;;;;;;6.56;81.52;100793.08;1730472;82;21579;-60
2022/02/10 11:07:34;;;;;;;29.95;19.35;;;;;;;6.83;80.67;100791.03;1750865;81;21456;-60
2022/02/10 11:37:35;;;;;;;25.82;17.80;;;;;;;6.95;79.18;100809.80;1768274;80;21563;-61
2022/02/10 11:40:27;;;;;;;24.43;19.15;;;;;;;7.01;79.13;100805.14;1767717;80;21511;-62
2022/02/10 11:43:47;;;;;;;24.87;17.12;;;;;;;7.10;78.85;100815.16;1768891;80;22089;-62
2022/02/10 12:01:57;;;;;;;28.95;19.67;;;;;;;7.17;77.86;100817.68;1732031;82;21294;-61
2022/02/10 12:39:46;;;;;;;22.25;16.48;;;;;;;7.24;76.81;100837.90;1769610;79;21193;-63
2022/02/10 13:03:07;;;;;;;28.90;19.70;;;;;;;7.64;76.56;100852.18;1767108;79;21351;-62
2022/02/10 13:24:27;;;;;;;25.75;19.42;;;;;;;7.07;75.88;100868.53;1738301;82;21188;-63
2022/02/10 14:14:55;;;;;;;26.77;19.67;;;;;;;7.00;76.08;100909.58;1768743;80;21756;-63
2022/02/10 14:21:28;;;;;;;36.53;25.57;;;;;;;6.88;76.33;100912.05;1753924;80;21252;-62
2022/02/10 14:27:49;;;;;;;31.05;22.10;;;;;;;6.80;76.65;100914.59;1738199;82;21736;-63
2022/02/10 14:30:58;;;;;;;32.78;23.42;;;;;;;6.78;76.76;100926.14;1738354;81;21201;-62
2022/02/10 14:34:03;;;;;;;40.05;25.10;;;;;;;6.77;76.74;100931.73;1755393;79;21750;-62
2022/02/10 14:40:54;;;;;;;44.13;28.73;;;;;;;6.73;76.82;100925.69;1759203;79;21209;-63
2022/02/10 16:11:04;;;;;;;34.55;23.67;;;;;;;5.09;82.51;100955.04;1738840;81;22022;-62
2022/02/10 16:17:15;;;;;;;41.92;27.37;;;;;;;5.00;82.99;100959.88;1732621;81;21275;-63
2022/02/10 16:20:23;;;;;;;45.12;30.75;;;;;;;4.96;83.18;100964.33;1769528;79;21208;-64
2022/02/10 16:23:32;;;;;;;46.85;32.03;;;;;;;4.97;83.38;100968.76;1770112;80;21726;-63
2022/02/10 16:26:54;;;;;;;43.30;27.93;;;;;;;4.96;83.49;100962.98;1770569;80;21228;-61
2022/02/10 16:29:47;;;;;;;43.65;28.05;;;;;;;4.94;83.57;100963.59;1769933;79;21181;-62
2022/02/10 16:32:56;;;;;;;41.70;26.80;;;;;;;4.91;83.61;100967.91;1768020;81;21315;-62
2022/02/10 16:36:00;;;;;;;39.83;27.27;;;;;;;4.88;83.65;100974.95;1768343;81;21213;-62
2022/02/10 16:39:06;;;;;;;41.20;27.10;;;;;;;4.87;83.68;100962.39;1768509;81;21185;-62
2022/02/10 16:42:16;;;;;;;44.40;29.05;;;;;;;4.85;83.75;100963.00;1769732;81;21252;-62
2022/02/10 16:45:19;;;;;;;42.73;27.58;;;;;;;4.84;83.81;100963.48;1770145;79;21213;-62
2022/02/10 16:48:25;;;;;;;42.43;28.47;;;;;;;4.86;83.89;100970.13;1770109;80;21189;-62
2022/02/10 16:51:32;;;;;;;42.53;29.95;;;;;;;4.87;83.96;100962.39;1769440;81;21621;-62
2022/02/10 16:54:42;;;;;;;38.63;25.88;;;;;;;4.86;83.99;100962.87;1769708;79;21837;-62
2022/02/10 17:01:29;;;;;;;42.38;29.77;;;;;;;4.84;84.11;100972.09;1769785;79;21220;-62
2022/02/10 17:21:13;;;;;;;41.10;27.07;;;;;;;4.83;84.30;100969.03;1738155;82;21817;-63
2022/02/10 17:27:30;;;;;;;45.10;27.87;;;;;;;4.76;84.28;100977.31;1737492;82;21221;-61
2022/02/10 17:30:59;;;;;;;41.15;26.15;;;;;;;4.73;84.39;100981.60;1737227;82;21272;-62
2022/02/10 17:53:24;;;;;;;36.65;24.67;;;;;;;4.63;84.60;100989.13;1737809;82;21328;-63
2022/02/10 17:56:20;;;;;;;37.35;24.43;;;;;;;4.66;84.64;100992.59;1737871;82;21363;-61
2022/02/10 17:59:28;;;;;;;34.40;23.50;;;;;;;4.67;84.65;100999.25;1737873;82;21394;-63
2022/02/10 18:02:33;;;;;;;37.25;23.27;;;;;;;4.66;84.65;100998.02;1738638;82;21343;-63
2022/02/10 18:15:55;;;;;;;40.45;27.42;;;;;;;4.63;84.86;101001.81;1741125;80;21225;-63
2022/02/10 18:19:11;;;;;;;37.10;25.00;;;;;;;4.63;84.83;101015.38;1740291;81;21864;-62
2022/02/10 18:22:40;;;;;;;42.88;25.90;;;;;;;4.61;84.79;101014.14;1739954;82;21193;-63
2022/02/10 18:29:02;;;;;;;38.42;24.82;;;;;;;4.53;84.87;101022.02;1739661;81;21558;-62
2022/02/10 19:09:34;;;;;;;28.10;20.60;;;;;;;4.72;84.59;101005.66;1770694;79;20237;-62
2022/02/10 19:12:48;;;;;;;28.87;20.62;;;;;;;4.69;84.61;100998.64;1770929;80;21252;-64
2022/02/10 19:15:54;;;;;;;28.75;19.65;;;;;;;4.68;84.55;101005.03;1769967;79;21789;-63
2022/02/10 19:19:02;;;;;;;32.30;21.02;;;;;;;4.68;84.56;101000.13;1770446;80;21373;-63
2022/02/10 19:22:08;;;;;;;32.03;21.73;;;;;;;4.66;84.55;101009.73;1735506;81;21169;-63
2022/02/10 19:25:14;;;;;;;29.30;21.42;;;;;;;4.68;84.58;101009.61;1735025;82;21219;-64
2022/02/10 19:28:20;;;;;;;30.12;22.82;;;;;;;4.71;84.57;101005.30;1736820;82;21328;-64
2022/02/10 19:31:27;;;;;;;37.17;22.70;;;;;;;4.69;84.52;100997.28;1753535;80;21224;-64
2022/02/10 19:34:35;;;;;;;33.40;21.80;;;;;;;4.69;84.51;101003.19;1770684;79;21334;-63
2022/02/10 19:37:41;;;;;;;31.02;21.97;;;;;;;4.66;84.51;101000.73;1770607;80;21207;-62
2022/02/10 19:40:54;;;;;;;32.45;22.60;;;;;;;4.65;84.49;101007.15;1770750;79;21592;-63
2022/02/10 19:44:01;;;;;;;57.65;28.92;;;;;;;4.61;84.45;101008.72;1769593;79;21413;-63
2022/02/10 19:47:09;;;;;;;37.75;24.82;;;;;;;4.60;84.50;101011.08;1770669;80;21185;-63
2022/02/10 19:50:22;;;;;;;34.25;21.42;;;;;;;4.59;84.52;101000.35;1769666;79;21194;-63
2022/02/10 19:53:24;;;;;;;31.57;19.92;;;;;;;4.57;84.50;100999.13;1770607;80;21687;-63
2022/02/10 19:56:31;;;;;;;26.60;20.15;;;;;;;4.53;84.46;101001.69;1769521;81;21197;-63
2022/02/10 19:59:38;;;;;;;35.00;22.95;;;;;;;4.52;84.50;101001.33;1769199;79;21757;-64
2022/02/10 20:02:44;;;;;;;34.98;21.87;;;;;;;4.49;84.54;101002.94;1770525;80;21216;-63
2022/02/10 20:05:51;;;;;;;31.07;20.57;;;;;;;4.48;84.62;101006.64;1771654;79;21264;-63
2022/02/10 20:08:55;;;;;;;31.73;19.82;;;;;;;4.46;84.64;101003.19;1769947;79;21189;-62
2022/02/10 20:12:02;;;;;;;32.23;20.52;;;;;;;4.44;84.64;101009.21;1770464;80;21216;-63
2022/02/10 20:15:10;;;;;;;26.33;19.55;;;;;;;4.42;84.67;101004.39;1761853;80;21285;-63
2022/02/10 20:18:15;;;;;;;31.37;21.60;;;;;;;4.40;84.74;101003.67;1769249;79;21272;-62
2022/02/10 20:21:23;;;;;;;33.80;20.52;;;;;;;4.42;84.80;101011.17;1770883;81;21197;-62
2022/02/10 20:24:28;;;;;;;27.07;19.80;;;;;;;4.43;84.89;101012.91;1770966;79;21231;-61
2022/02/10 20:27:35;;;;;;;31.35;21.25;;;;;;;4.45;84.87;101015.02;1770760;81;21189;-62
2022/02/10 20:30:40;;;;;;;27.87;19.82;;;;;;;4.43;84.80;101007.98;1770689;79;21402;-62
2022/02/10 20:33:47;;;;;;;28.73;20.57;;;;;;;4.37;84.78;101005.76;1770801;81;21201;-62
2022/02/10 20:36:55;;;;;;;26.05;18.75;;;;;;;4.34;84.81;101008.20;1770824;81;21339;-62
2022/02/10 20:40:02;;;;;;;28.73;19.07;;;;;;;4.34;84.92;101018.20;1770922;79;21221;-63
2022/02/10 20:43:08;;;;;;;26.93;18.67;;;;;;;4.32;84.95;101016.97;1770345;81;21204;-62
2022/02/10 20:46:17;;;;;;;26.90;20.37;;;;;;;4.32;85.00;101014.74;1770456;81;21212;-61
2022/02/10 20:49:27;;;;;;;29.18;18.92;;;;;;;4.29;85.00;101016.34;1770745;79;21841;-62
2022/02/10 20:52:31;;;;;;;25.57;17.98;;;;;;;4.23;85.12;101014.96;1770963;80;21217;-62
2022/02/10 20:55:37;;;;;;;30.45;19.75;;;;;;;4.18;85.21;101010.42;1770995;79;21907;-63
2022/02/10 20:58:49;;;;;;;33.40;20.02;;;;;;;4.13;85.37;101018.52;1770744;81;21448;-62
2022/02/10 21:02:03;;;;;;;29.07;19.27;;;;;;;4.06;85.40;101012.71;1771553;80;21186;-64
2022/02/10 21:05:25;;;;;;;31.67;20.73;;;;;;;4.01;85.54;101014.91;1771296;79;21228;-62
2022/02/10 21:11:36;;;;;;;30.23;22.13;;;;;;;3.95;85.83;101019.93;1770707;81;21272;-63
2022/02/10 21:14:42;;;;;;;42.73;29.02;;;;;;;3.91;86.02;101013.91;1770731;79;21193;-62
2022/02/10 21:17:51;;;;;;;35.55;23.18;;;;;;;3.90;86.13;101005.40;1770014;79;21267;-62
2022/02/10 21:21:01;;;;;;;28.92;19.30;;;;;;;3.87;86.18;101006.16;1768948;79;21324;-62
2022/02/10 21:24:12;;;;;;;28.07;20.52;;;;;;;3.81;86.27;101000.70;1768717;81;21273;-62
2022/02/10 21:27:28;;;;;;;29.45;19.45;;;;;;;3.80;86.31;100999.47;1769593;81;21847;-63
2022/02/10 21:30:28;;;;;;;30.75;20.10;;;;;;;3.77;86.37;101005.99;1769588;81;21347;-64
2022/02/10 21:40:26;;;;;;;27.62;19.92;;;;;;;3.70;86.53;101002.49;1769114;80;21209;-62
2022/02/10 21:57:08;;;;;;;31.85;21.20;;;;;;;3.52;86.53;101003.91;1769223;81;20554;-62
2022/02/10 22:19:59;;;;;;;31.33;19.10;;;;;;;3.34;86.96;100999.39;1768244;80;20285;-62
2022/02/10 22:23:07;;;;;;;28.00;19.77;;;;;;;3.32;87.09;100994.58;1769163;81;21178;-62
2022/02/10 22:26:18;;;;;;;30.32;20.57;;;;;;;3.32;87.12;100994.58;1769212;81;21343;-62
2022/02/10 22:32:47;;;;;;;33.45;20.68;;;;;;;3.27;87.18;100991.34;1769215;79;21280;-62
2022/02/10 22:35:38;;;;;;;29.10;19.23;;;;;;;3.28;87.26;101001.21;1769256;80;21406;-62
2022/02/10 22:38:46;;;;;;;32.50;21.37;;;;;;;3.27;87.31;100998.11;1769357;80;21347;-62
2022/02/10 22:41:52;;;;;;;31.82;20.95;;;;;;;3.29;87.40;101003.41;1768697;81;21225;-62
2022/02/10 22:44:57;;;;;;;38.42;23.57;;;;;;;3.31;87.45;101006.87;1769097;81;21364;-61
2022/02/10 22:48:04;;;;;;;38.45;24.55;;;;;;;3.32;87.50;101006.75;1769485;80;21750;-63
2022/02/10 22:51:10;;;;;;;37.98;24.05;;;;;;;3.34;87.50;101003.45;1769163;80;21371;-62
2022/02/10 22:54:16;;;;;;;36.05;23.20;;;;;;;3.35;87.46;101005.17;1769075;81;21375;-62
2022/02/10 22:57:21;;;;;;;35.03;21.77;;;;;;;3.37;87.45;101001.86;1768861;80;21375;-62
2022/02/10 23:00:58;;;;;;;33.63;21.50;;;;;;;3.41;87.39;101005.22;1769206;80;21368;-62
2022/02/10 23:03:54;;;;;;;39.23;23.80;;;;;;;3.41;87.31;100989.82;1769173;80;21319;-62
2022/02/10 23:07:07;;;;;;;33.18;22.35;;;;;;;3.42;87.13;100996.98;1769075;80;21170;-63
2022/02/10 23:13:27;;;;;;;36.60;22.35;;;;;;;3.37;86.27;100997.81;1726804;81;23348;-63
2022/02/10 23:16:30;;;;;;;35.10;21.12;;;;;;;3.29;85.81;100985.82;1769475;80;21225;-62
2022/02/10 23:19:39;;;;;;;32.25;21.52;;;;;;;3.25;85.55;100992.45;1769312;80;21226;-62
2022/02/10 23:22:43;;;;;;;30.90;21.17;;;;;;;3.20;85.39;100991.45;1768954;80;21272;-61
2022/02/10 23:25:50;;;;;;;31.15;20.45;;;;;;;3.17;85.31;100990.33;1769534;80;21280;-62
2022/02/10 23:28:57;;;;;;;28.47;20.00;;;;;;;3.18;85.47;100986.63;1769129;80;21332;-62
2022/02/10 23:32:04;;;;;;;28.90;20.25;;;;;;;3.19;85.56;100992.41;1769828;80;21203;-62
2022/02/10 23:35:26;;;;;;;32.28;20.52;;;;;;;3.21;85.72;100991.81;1769533;80;21201;-62
2022/02/10 23:38:20;;;;;;;33.73;21.90;;;;;;;3.24;85.83;100987.52;1769312;80;21205;-61
2022/02/10 23:41:57;;;;;;;38.92;23.50;;;;;;;3.28;85.85;100988.17;1769544;80;21528;-62
2022/02/10 23:44:40;;;;;;;42.45;25.57;;;;;;;3.32;85.78;100988.30;1769036;81;21367;-61
2022/02/10 23:47:42;;;;;;;37.30;23.83;;;;;;;3.35;85.70;100986.70;1768826;81;21280;-62
2022/02/10 23:50:47;;;;;;;38.90;24.32;;;;;;;3.38;85.62;100988.70;1769139;80;21355;-61
2022/02/10 23:53:52;;;;;;;41.37;25.52;;;;;;;3.40;85.50;100994.87;1770075;80;21209;-61
2022/02/10 23:57:08;;;;;;;38.80;25.70;;;;;;;3.41;85.38;100988.98;1769400;80;21770;-62
